Time;durP1;ratioP1;P1;durP2;ratioP2;P2;SDS_P1;SDS_P2;PMS_P1;PMS_P2;Temp;Humidity;BMP_temperature;BMP_pressure;BME280_temperature;BME280_humidity;BME280_pressure;Samples;Min_cycle;Max_cycle;Signal;HPM_P1;HPM_P2
2023/03/16 00:00:48;;;;;;;7.88;5.82;;;;;;;1.68;70.95;97053.47;4955372;29;20078;-79
2023/03/16 00:03:18;;;;;;;12.82;7.65;;;;;;;1.67;71.23;97051.84;4955041;29;20047;-79
2023/03/16 00:05:46;;;;;;;10.85;7.78;;;;;;;1.68;71.33;97056.03;4954913;29;20091;-79
2023/03/16 00:08:16;;;;;;;9.77;7.53;;;;;;;1.67;71.01;97050.09;4954148;28;20077;-78
2023/03/16 00:10:45;;;;;;;10.52;7.85;;;;;;;1.66;71.24;97051.00;4955499;29;20065;-79
2023/03/16 00:13:14;;;;;;;12.27;6.68;;;;;;;1.68;71.27;97043.19;4954921;29;20062;-79
2023/03/16 00:15:49;;;;;;;7.82;6.40;;;;;;;1.67;71.13;97046.69;4954803;29;20200;-79
2023/03/16 00:18:17;;;;;;;9.23;6.15;;;;;;;1.67;70.96;97055.22;4953805;28;20098;-79
2023/03/16 00:20:44;;;;;;;7.35;5.75;;;;;;;1.65;70.71;97060.47;4954917;29;20051;-79
2023/03/16 00:23:12;;;;;;;7.97;5.80;;;;;;;1.60;70.86;97065.16;4955015;29;20089;-79
2023/03/16 00:25:41;;;;;;;8.50;5.40;;;;;;;1.58;71.33;97064.44;4954607;29;20055;-78
2023/03/16 00:28:08;;;;;;;8.68;7.32;;;;;;;1.57;70.87;97059.41;4953810;28;20109;-78
2023/03/16 00:30:36;;;;;;;9.73;6.28;;;;;;;1.55;71.09;97056.97;4954611;29;20048;-79
2023/03/16 00:33:04;;;;;;;8.45;5.50;;;;;;;1.58;71.40;97056.72;4954488;29;20110;-79
2023/03/16 00:35:33;;;;;;;8.23;5.95;;;;;;;1.59;71.11;97062.69;4955059;29;20048;-78
2023/03/16 00:38:01;;;;;;;8.77;6.47;;;;;;;1.58;70.76;97061.88;4954018;28;20191;-78
2023/03/16 00:40:29;;;;;;;9.40;6.63;;;;;;;1.58;70.84;97066.22;4954799;29;20055;-79
2023/03/16 00:42:58;;;;;;;9.15;6.68;;;;;;;1.54;71.06;97060.47;4954524;29;20054;-78
2023/03/16 00:45:25;;;;;;;10.30;7.22;;;;;;;1.51;70.86;97063.28;4954286;29;20086;-78
2023/03/16 00:47:53;;;;;;;13.27;7.63;;;;;;;1.49;71.26;97069.44;4953961;28;20059;-79
2023/03/16 00:50:21;;;;;;;8.57;7.00;;;;;;;1.47;71.30;97068.75;4954743;29;20047;-79
2023/03/16 00:52:52;;;;;;;10.35;7.70;;;;;;;1.47;72.54;97069.56;4954673;29;20478;-78
2023/03/16 00:55:20;;;;;;;8.98;6.60;;;;;;;1.54;72.36;97068.19;4954685;29;20053;-78
2023/03/16 00:57:48;;;;;;;10.55;7.57;;;;;;;1.59;71.57;97070.41;4954320;28;20485;-78
2023/03/16 01:00:19;;;;;;;9.52;7.43;;;;;;;1.63;72.70;97069.25;4998288;23;20425;-83
2023/03/16 01:02:47;;;;;;;10.40;7.18;;;;;;;1.72;71.93;97062.59;4956969;29;20055;-83
2023/03/16 01:05:16;;;;;;;11.02;7.53;;;;;;;1.74;71.38;97050.44;4956938;28;20047;-83
2023/03/16 01:07:44;;;;;;;11.18;7.72;;;;;;;1.67;70.95;97059.56;4959659;29;20054;-88
2023/03/16 01:10:12;;;;;;;11.93;8.35;;;;;;;1.63;71.46;97052.06;4959737;28;20051;-83
2023/03/16 01:12:40;;;;;;;11.52;8.38;;;;;;;1.62;71.12;97054.75;4959993;29;20065;-82
2023/03/16 01:15:10;;;;;;;12.00;8.90;;;;;;;1.60;71.22;97060.00;4960983;29;20051;-83
2023/03/16 01:17:40;;;;;;;11.73;7.95;;;;;;;1.58;71.20;97058.50;4959928;29;20057;-83
2023/03/16 01:20:11;;;;;;;11.52;8.05;;;;;;;1.54;70.89;97054.50;4958984;28;20086;-83
2023/03/16 01:22:38;;;;;;;13.13;7.97;;;;;;;1.47;71.31;97054.16;4958955;29;20073;-83
2023/03/16 01:25:07;;;;;;;13.80;8.90;;;;;;;1.46;71.60;97049.09;4958670;29;20043;-83
2023/03/16 01:27:38;;;;;;;13.23;8.60;;;;;;;1.46;71.01;97049.09;4959010;29;20055;-83
2023/03/16 01:30:07;;;;;;;10.32;7.90;;;;;;;1.50;71.39;97053.09;4958889;28;20054;-83
2023/03/16 01:32:35;;;;;;;9.13;7.72;;;;;;;1.45;70.67;97048.31;4958899;29;20062;-83
2023/03/16 01:35:05;;;;;;;11.63;7.18;;;;;;;1.41;70.81;97049.47;4959345;29;20051;-83
2023/03/16 01:37:33;;;;;;;11.15;7.63;;;;;;;1.38;70.97;97041.97;4958933;29;20066;-83
2023/03/16 01:40:01;;;;;;;9.98;7.18;;;;;;;1.37;71.58;97040.31;4958883;28;20502;-83
2023/03/16 01:42:28;;;;;;;11.70;8.68;;;;;;;1.42;71.58;97040.78;4960493;29;20058;-83
2023/03/16 01:45:00;;;;;;;10.38;8.27;;;;;;;1.46;71.37;97037.06;4959722;29;20051;-83
2023/03/16 01:47:28;;;;;;;10.65;7.95;;;;;;;1.46;70.83;97037.06;4960012;29;20524;-83
2023/03/16 01:49:56;;;;;;;9.35;7.57;;;;;;;1.42;71.02;97022.81;4959538;28;20050;-84
2023/03/16 01:52:32;;;;;;;9.77;6.95;;;;;;;1.42;71.06;97025.38;4958505;29;20059;-83
2023/03/16 01:55:04;;;;;;;10.18;7.10;;;;;;;1.37;70.99;97027.47;4958686;29;20531;-83
2023/03/16 01:57:35;;;;;;;9.30;7.25;;;;;;;1.34;70.91;97030.28;4958904;29;20161;-83
2023/03/16 02:00:09;;;;;;;8.00;6.60;;;;;;;1.33;71.18;97023.50;4957941;28;20502;-83
2023/03/16 02:02:42;;;;;;;10.07;7.68;;;;;;;1.30;70.90;97031.44;4958621;28;20052;-83
2023/03/16 02:05:14;;;;;;;9.77;7.75;;;;;;;1.29;71.01;97029.78;4958635;29;20083;-84
2023/03/16 02:07:48;;;;;;;10.15;7.93;;;;;;;1.26;71.05;97030.03;4958595;29;20051;-83
2023/03/16 02:10:17;;;;;;;10.75;8.07;;;;;;;1.24;70.89;97033.50;4958919;28;20512;-83
2023/03/16 02:12:46;;;;;;;11.43;7.78;;;;;;;1.26;71.01;97035.16;4958493;29;20069;-83
2023/03/16 02:15:15;;;;;;;10.38;7.00;;;;;;;1.28;71.14;97041.00;4958463;29;20303;-83
2023/03/16 02:17:44;;;;;;;10.25;7.00;;;;;;;1.32;70.98;97039.84;4958896;28;20054;-87
2023/03/16 02:20:26;;;;;;;11.45;7.78;;;;;;;1.34;70.98;97035.44;4957775;28;20176;-83
2023/03/16 02:22:56;;;;;;;8.88;7.20;;;;;;;1.35;70.80;97031.91;4957828;29;20061;-86
2023/03/16 02:25:29;;;;;;;10.07;7.13;;;;;;;1.38;71.14;97029.13;4964825;29;20046;-86
2023/03/16 02:28:04;;;;;;;9.60;7.47;;;;;;;1.38;70.68;97029.13;4976340;28;20109;-84
2023/03/16 02:30:33;;;;;;;12.18;8.40;;;;;;;1.37;70.74;97033.44;4976206;29;20086;-85
2023/03/16 02:33:03;;;;;;;12.43;7.53;;;;;;;1.35;70.51;97032.72;4968177;29;20055;-85
2023/03/16 02:35:31;;;;;;;10.30;7.40;;;;;;;1.32;70.38;97032.97;4965855;29;20479;-83
2023/03/16 02:38:00;;;;;;;10.13;7.30;;;;;;;1.32;71.04;97027.00;4959429;28;20561;-83
2023/03/16 02:40:30;;;;;;;10.88;8.02;;;;;;;1.32;70.68;97032.16;4958025;29;20098;-83
2023/03/16 02:43:03;;;;;;;9.65;7.68;;;;;;;1.31;70.71;97027.91;4957806;29;20051;-83
2023/03/16 02:45:36;;;;;;;13.48;8.02;;;;;;;1.31;70.73;97022.78;4959829;29;20141;-83
2023/03/16 02:48:09;;;;;;;10.35;7.38;;;;;;;1.31;71.74;97018.47;4958083;28;20063;-83
2023/03/16 02:50:42;;;;;;;10.20;6.93;;;;;;;1.32;70.83;97020.09;4957319;29;20453;-82
2023/03/16 02:53:09;;;;;;;10.20;7.88;;;;;;;1.28;70.97;97010.16;4957719;29;20545;-83
2023/03/16 02:55:37;;;;;;;10.98;7.28;;;;;;;1.21;70.54;97005.47;4957877;28;20063;-83
2023/03/16 02:58:05;;;;;;;8.23;6.20;;;;;;;1.17;70.93;96998.13;4956587;28;20055;-83
2023/03/16 03:00:33;;;;;;;10.07;7.03;;;;;;;1.14;71.13;97003.50;4956987;29;20055;-83
2023/03/16 03:03:02;;;;;;;11.13;7.60;;;;;;;1.11;71.43;96996.81;4959967;29;20106;-84
2023/03/16 03:05:30;;;;;;;8.52;6.70;;;;;;;1.11;71.45;97009.66;4963252;29;20054;-84
2023/03/16 03:07:58;;;;;;;9.32;7.25;;;;;;;1.12;71.73;97008.75;4961468;28;20580;-84
2023/03/16 03:10:26;;;;;;;11.13;6.80;;;;;;;1.17;71.90;97009.19;4958774;29;20119;-83
2023/03/16 03:12:54;;;;;;;15.52;7.20;;;;;;;1.24;71.72;97009.56;4966349;29;20047;-84
2023/03/16 03:15:21;;;;;;;10.60;6.95;;;;;;;1.25;72.47;97003.50;4972594;29;20111;-83
2023/03/16 03:17:49;;;;;;;11.30;6.95;;;;;;;1.24;72.54;97000.09;4972226;29;20099;-85
2023/03/16 03:20:18;;;;;;;8.52;6.45;;;;;;;1.28;73.04;96999.91;4962199;28;20057;-83
2023/03/16 03:22:49;;;;;;;9.98;6.78;;;;;;;1.35;73.26;96998.50;4959439;29;20074;-83
2023/03/16 03:25:17;;;;;;;9.93;7.28;;;;;;;1.41;73.95;96998.03;4957244;29;20055;-83
2023/03/16 03:27:46;;;;;;;13.35;8.15;;;;;;;1.49;74.33;96995.72;4957321;28;20116;-82
2023/03/16 03:30:16;;;;;;;11.77;7.43;;;;;;;1.54;74.22;96987.66;4957707;28;20106;-83
2023/03/16 03:32:45;;;;;;;12.05;8.07;;;;;;;1.58;74.51;96994.22;4957161;29;20047;-83
2023/03/16 03:35:14;;;;;;;11.60;8.18;;;;;;;1.62;74.95;96999.00;4957639;29;20047;-83
2023/03/16 03:37:44;;;;;;;11.45;7.00;;;;;;;1.60;73.67;96998.31;4957142;29;20047;-84
2023/03/16 03:40:14;;;;;;;11.35;8.35;;;;;;;1.59;74.19;97001.78;4957397;28;20131;-83
2023/03/16 03:42:42;;;;;;;11.55;7.35;;;;;;;1.58;73.67;97000.16;4957379;29;20062;-83
2023/03/16 03:45:11;;;;;;;13.95;8.07;;;;;;;1.57;74.04;96995.13;4957509;29;20061;-83
2023/03/16 03:47:40;;;;;;;14.98;8.75;;;;;;;1.57;73.88;96990.81;4956805;29;20059;-83
2023/03/16 03:50:09;;;;;;;14.57;9.15;;;;;;;1.54;73.48;96993.63;4957630;28;20512;-83
2023/03/16 03:52:36;;;;;;;13.27;8.30;;;;;;;1.54;74.12;96998.75;4957380;29;20055;-82
2023/03/16 03:55:08;;;;;;;13.15;8.00;;;;;;;1.49;73.16;96997.44;4957829;29;20051;-83
2023/03/16 03:57:36;;;;;;;10.27;7.85;;;;;;;1.40;72.62;96993.81;4960602;29;20150;-83
2023/03/16 04:00:08;;;;;;;12.80;8.07;;;;;;;1.33;72.81;96995.22;4964823;28;20084;-84
2023/03/16 04:02:36;;;;;;;13.15;8.55;;;;;;;1.27;73.39;96990.53;4963502;29;20070;-84
2023/03/16 04:05:05;;;;;;;11.00;8.43;;;;;;;1.26;73.43;96989.72;4959633;29;20561;-83
2023/03/16 04:07:33;;;;;;;10.80;8.40;;;;;;;1.24;73.05;96992.41;4957597;29;20055;-83
2023/03/16 04:10:01;;;;;;;12.88;9.27;;;;;;;1.25;73.61;96977.81;4956644;28;20090;-85
2023/03/16 04:12:30;;;;;;;13.57;8.98;;;;;;;1.29;74.29;96973.25;4956964;29;20142;-83
2023/03/16 04:14:58;;;;;;;12.57;9.15;;;;;;;1.27;73.17;96973.38;4956470;29;20529;-83
2023/03/16 04:17:26;;;;;;;14.32;10.05;;;;;;;1.24;73.30;96982.13;4956577;29;20091;-83
2023/03/16 04:19:54;;;;;;;12.50;9.05;;;;;;;1.22;73.13;96978.88;4955751;28;20134;-83
2023/03/16 04:22:22;;;;;;;12.93;8.98;;;;;;;1.21;73.28;96979.78;4955486;29;20494;-83
2023/03/16 04:24:51;;;;;;;13.95;9.60;;;;;;;1.28;73.68;96972.44;4963570;29;20055;-83
2023/03/16 04:27:18;;;;;;;12.18;8.73;;;;;;;1.30;73.05;96969.75;4972056;29;20031;-83
2023/03/16 04:29:47;;;;;;;12.95;9.27;;;;;;;1.30;72.95;96957.72;4973595;28;20067;-83
2023/03/16 04:32:15;;;;;;;12.02;9.15;;;;;;;1.34;73.14;96960.88;4962630;29;20426;-83
2023/03/16 04:34:43;;;;;;;16.05;10.57;;;;;;;1.35;72.70;96958.19;4956744;28;20055;-82
2023/03/16 04:37:12;;;;;;;12.82;9.48;;;;;;;1.35;73.03;96957.38;4955708;29;20118;-83
2023/03/16 04:39:40;;;;;;;13.68;9.63;;;;;;;1.37;72.70;96952.94;4955223;28;20047;-83
2023/03/16 04:42:08;;;;;;;13.27;10.00;;;;;;;1.35;72.41;96957.38;4958948;29;20085;-83
2023/03/16 04:44:42;;;;;;;16.33;10.57;;;;;;;1.34;72.63;96948.03;4959713;29;20519;-83
2023/03/16 04:47:12;;;;;;;14.07;10.77;;;;;;;1.32;72.56;96947.34;4961225;29;20061;-83
2023/03/16 04:49:40;;;;;;;15.15;10.13;;;;;;;1.28;72.55;96951.88;4958135;28;20151;-84
2023/03/16 04:52:09;;;;;;;17.17;10.15;;;;;;;1.26;72.50;96948.59;4958795;29;20051;-83
2023/03/16 04:54:37;;;;;;;13.65;9.85;;;;;;;1.23;72.51;96944.50;4958338;29;20089;-83
2023/03/16 04:57:05;;;;;;;15.07;10.55;;;;;;;1.22;72.69;96942.88;4958183;29;20110;-83
2023/03/16 04:59:33;;;;;;;15.55;10.32;;;;;;;1.22;73.27;96948.03;4958309;28;20059;-85
2023/03/16 05:02:01;;;;;;;14.15;10.35;;;;;;;1.26;74.18;96943.47;4958674;29;20047;-83
2023/03/16 05:04:30;;;;;;;15.27;10.45;;;;;;;1.34;73.92;96945.47;4958418;29;20051;-84
2023/03/16 05:06:58;;;;;;;14.80;10.32;;;;;;;1.40;74.00;96940.69;4958424;29;20047;-83
2023/03/16 05:09:25;;;;;;;14.70;11.05;;;;;;;1.50;73.76;96951.06;4957999;28;20425;-83
2023/03/16 05:11:53;;;;;;;15.93;10.88;;;;;;;1.50;73.34;96945.94;4958630;29;20521;-82
2023/03/16 05:14:21;;;;;;;14.20;10.55;;;;;;;1.49;73.04;96946.88;4958179;29;20061;-83
2023/03/16 05:16:49;;;;;;;15.20;10.63;;;;;;;1.46;72.87;96941.13;4958077;29;20490;-83
2023/03/16 05:19:16;;;;;;;16.20;10.85;;;;;;;1.46;72.80;96944.53;4957783;28;20047;-83
2023/03/16 05:21:46;;;;;;;16.05;11.77;;;;;;;1.49;73.88;96954.59;4958715;29;20494;-83
2023/03/16 05:24:14;;;;;;;16.90;12.05;;;;;;;1.55;73.97;96949.00;4958705;29;20569;-83
2023/03/16 05:26:41;;;;;;;16.77;11.23;;;;;;;1.56;73.38;96939.50;4958450;29;20142;-83
2023/03/16 05:29:09;;;;;;;15.00;11.50;;;;;;;1.56;73.15;96942.09;4958550;28;20106;-83
2023/03/16 05:31:37;;;;;;;21.05;12.27;;;;;;;1.52;72.63;96945.81;4959618;29;20407;-84
2023/03/16 05:34:05;;;;;;;16.13;12.43;;;;;;;1.49;72.67;96930.63;4973159;28;20091;-85
2023/03/16 05:36:34;;;;;;;20.23;13.65;;;;;;;1.49;73.72;96930.63;4971581;29;20055;-85
2023/03/16 05:39:04;;;;;;;17.52;12.77;;;;;;;1.50;73.79;96932.25;4960409;28;20051;-83
2023/03/16 05:41:32;;;;;;;18.67;13.60;;;;;;;1.46;73.25;96939.38;4958956;29;20505;-83
2023/03/16 05:44:00;;;;;;;20.48;13.50;;;;;;;1.40;73.09;96937.28;4958543;29;20565;-83
2023/03/16 05:46:28;;;;;;;20.00;12.45;;;;;;;1.38;73.46;96944.31;4958581;29;20182;-83
2023/03/16 05:48:56;;;;;;;23.27;13.85;;;;;;;1.34;73.19;96943.72;4957631;28;20051;-83
2023/03/16 05:51:25;;;;;;;19.80;14.15;;;;;;;1.31;73.18;96941.38;4957931;28;20055;-83
2023/03/16 05:53:55;;;;;;;20.77;14.50;;;;;;;1.34;73.96;96945.47;4957573;29;20518;-83
2023/03/16 05:56:25;;;;;;;17.95;12.27;;;;;;;1.42;74.61;96953.41;4957740;29;20094;-83
2023/03/16 05:58:54;;;;;;;19.77;13.40;;;;;;;1.48;73.95;96946.97;4957121;28;20074;-83
2023/03/16 06:01:22;;;;;;;19.65;13.50;;;;;;;1.49;73.54;96949.44;4957799;29;20051;-85
2023/03/16 06:03:51;;;;;;;20.10;12.32;;;;;;;1.48;73.15;96950.38;4957637;29;20067;-83
2023/03/16 06:06:20;;;;;;;19.67;13.18;;;;;;;1.51;73.61;96952.72;4958102;29;20047;-83
2023/03/16 06:08:48;;;;;;;16.73;12.27;;;;;;;1.49;73.01;96949.44;4957145;28;20047;-84
2023/03/16 06:11:16;;;;;;;17.90;12.80;;;;;;;1.43;73.09;96948.16;4966757;29;20182;-84
2023/03/16 06:13:45;;;;;;;18.10;12.48;;;;;;;1.39;73.01;96935.66;4968060;29;20086;-85
2023/03/16 06:16:15;;;;;;;20.30;13.15;;;;;;;1.36;73.12;96938.47;4960236;29;20057;-83
2023/03/16 06:18:44;;;;;;;20.10;12.57;;;;;;;1.43;74.20;96940.44;4956872;28;20069;-83
2023/03/16 06:21:11;;;;;;;19.80;12.82;;;;;;;1.48;73.73;96939.28;4972977;29;20067;-85
2023/03/16 06:23:39;;;;;;;18.00;12.65;;;;;;;1.50;73.77;96940.78;4977273;29;20074;-85
2023/03/16 06:26:07;;;;;;;18.92;12.85;;;;;;;1.55;73.67;96953.28;4976232;28;20087;-83
2023/03/16 06:28:35;;;;;;;18.65;12.30;;;;;;;1.59;73.76;96955.50;4971740;28;20075;-84
2023/03/16 06:31:04;;;;;;;19.88;13.95;;;;;;;1.61;73.55;96953.63;4974954;29;20062;-85
2023/03/16 06:33:32;;;;;;;18.63;12.82;;;;;;;1.57;73.18;96951.41;4961996;28;20066;-85
2023/03/16 06:36:00;;;;;;;15.52;11.15;;;;;;;1.50;73.10;96950.25;4958371;29;20055;-83
2023/03/16 06:38:28;;;;;;;17.15;12.57;;;;;;;1.46;73.12;96947.09;4957159;28;20047;-83
2023/03/16 06:40:56;;;;;;;16.38;11.38;;;;;;;1.51;73.79;96947.59;4958142;29;20047;-83
2023/03/16 06:43:24;;;;;;;20.95;12.75;;;;;;;1.56;73.24;96945.47;4957888;29;20051;-83
2023/03/16 06:45:52;;;;;;;16.90;11.63;;;;;;;1.63;73.10;96946.63;4957431;29;20058;-83
2023/03/16 06:48:21;;;;;;;16.58;12.00;;;;;;;1.74;73.01;96945.00;4956920;28;20051;-83
2023/03/16 06:50:49;;;;;;;19.55;11.98;;;;;;;1.83;73.00;96952.81;4957202;29;20137;-84
2023/03/16 06:53:17;;;;;;;17.25;12.52;;;;;;;1.93;72.88;96952.94;4957764;28;20510;-84
2023/03/16 06:55:45;;;;;;;15.98;11.30;;;;;;;2.01;72.26;96950.59;4957506;29;20075;-83
2023/03/16 06:58:16;;;;;;;15.43;10.48;;;;;;;2.12;72.39;96941.19;4958896;28;20051;-83
2023/03/16 07:00:44;;;;;;;15.27;11.15;;;;;;;2.23;71.61;96954.03;4976063;23;20071;-76
2023/03/16 07:03:12;;;;;;;13.75;10.20;;;;;;;2.30;71.90;96942.31;4954816;28;20059;-76
2023/03/16 07:05:41;;;;;;;12.55;9.38;;;;;;;2.40;71.70;96945.78;4955893;28;20054;-76
2023/03/16 07:08:09;;;;;;;15.90;10.35;;;;;;;2.50;70.95;96945.88;4954691;29;20145;-76
2023/03/16 07:10:36;;;;;;;14.35;10.45;;;;;;;2.63;70.70;96943.13;4955504;28;20080;-76
2023/03/16 07:13:04;;;;;;;13.63;10.15;;;;;;;2.72;70.10;96952.69;4955297;29;20514;-77
2023/03/16 07:15:31;;;;;;;13.68;9.93;;;;;;;2.81;70.07;96948.56;4956186;29;20055;-76
2023/03/16 07:17:59;;;;;;;12.73;9.48;;;;;;;2.99;70.35;96946.22;4954620;29;20490;-77
2023/03/16 07:20:30;;;;;;;13.02;9.05;;;;;;;3.17;69.97;96955.03;4955153;28;20083;-77
2023/03/16 07:22:59;;;;;;;14.20;9.85;;;;;;;3.36;70.18;96959.47;4955104;29;20066;-76
2023/03/16 07:25:27;;;;;;;12.93;9.02;;;;;;;3.55;69.69;96948.44;4955031;29;20506;-77
2023/03/16 07:27:54;;;;;;;11.40;8.35;;;;;;;3.75;69.78;96953.69;4954520;29;20055;-77
2023/03/16 07:30:24;;;;;;;11.05;8.93;;;;;;;3.92;68.44;96945.31;4954776;28;20047;-77
2023/03/16 07:32:51;;;;;;;11.57;8.35;;;;;;;4.10;68.82;96956.63;4954939;29;20436;-77
2023/03/16 07:35:20;;;;;;;10.35;8.07;;;;;;;4.30;67.55;96959.25;4954933;29;20449;-77
2023/03/16 07:37:48;;;;;;;11.98;8.73;;;;;;;4.44;66.37;96958.88;4954155;29;20047;-76
2023/03/16 07:40:17;;;;;;;10.98;8.23;;;;;;;4.57;65.73;96960.38;4954438;28;20051;-77
2023/03/16 07:42:45;;;;;;;10.60;7.38;;;;;;;4.76;65.13;96955.22;4954440;29;20134;-77
2023/03/16 07:45:13;;;;;;;9.20;7.10;;;;;;;5.00;66.38;96956.56;4954924;29;20051;-77
2023/03/16 07:47:40;;;;;;;8.80;6.55;;;;;;;5.36;64.72;96963.56;4954399;29;20051;-77
2023/03/16 07:50:10;;;;;;;9.48;7.47;;;;;;;6.36;62.26;96974.22;4953883;28;20051;-77
2023/03/16 07:52:37;;;;;;;9.38;7.47;;;;;;;8.32;56.62;96966.09;4954486;29;20055;-77
2023/03/16 07:55:06;;;;;;;8.80;6.57;;;;;;;10.09;51.47;96961.13;4954580;29;20494;-77
2023/03/16 07:57:35;;;;;;;7.35;5.85;;;;;;;11.43;48.83;96959.91;4954570;29;20142;-77
2023/03/16 08:00:04;;;;;;;7.80;6.10;;;;;;;12.55;45.42;96964.16;4953429;28;20090;-76
2023/03/16 08:02:31;;;;;;;8.63;6.22;;;;;;;13.45;44.46;96960.19;4954099;29;20051;-77
2023/03/16 08:04:59;;;;;;;8.20;5.78;;;;;;;14.17;42.16;96958.97;4954025;29;20047;-77
2023/03/16 08:07:26;;;;;;;8.20;6.45;;;;;;;14.84;40.66;96964.44;4954038;29;20150;-77
2023/03/16 08:09:54;;;;;;;7.05;5.75;;;;;;;15.14;39.94;96972.78;4953008;28;20649;-77
2023/03/16 08:12:22;;;;;;;6.45;5.57;;;;;;;15.14;40.02;96964.09;4953882;29;20514;-77
2023/03/16 08:14:51;;;;;;;6.22;5.63;;;;;;;15.43;38.43;96968.13;4955818;28;20051;-77
2023/03/16 08:17:18;;;;;;;6.45;5.30;;;;;;;15.88;38.97;96965.66;4958240;29;20059;-78
2023/03/16 08:19:46;;;;;;;7.22;5.93;;;;;;;16.47;37.35;96958.56;4956968;28;20138;-77
2023/03/16 08:22:13;;;;;;;9.88;5.95;;;;;;;16.96;36.42;96966.81;4958041;29;20424;-77
2023/03/16 08:24:41;;;;;;;6.18;5.32;;;;;;;17.23;35.30;96959.53;4958023;29;20063;-77
2023/03/16 08:27:09;;;;;;;6.47;5.50;;;;;;;17.84;34.40;96958.00;4957638;29;20536;-77
2023/03/16 08:29:37;;;;;;;6.47;5.85;;;;;;;18.16;33.41;96949.94;4956926;28;20093;-77
2023/03/16 08:32:07;;;;;;;11.35;7.05;;;;;;;18.27;32.85;96950.00;4957449;29;20057;-77
2023/03/16 08:34:35;;;;;;;7.75;6.38;;;;;;;18.51;32.54;96953.53;4957446;29;20138;-77
2023/03/16 08:37:03;;;;;;;7.35;5.82;;;;;;;18.52;32.89;96952.53;4957837;29;20469;-78
2023/03/16 08:39:30;;;;;;;6.45;5.70;;;;;;;18.77;31.79;96954.22;4956923;28;20047;-77
2023/03/16 08:41:58;;;;;;;7.50;5.72;;;;;;;18.91;31.69;96955.69;4957519;29;20528;-78
2023/03/16 08:44:26;;;;;;;8.65;6.20;;;;;;;19.33;31.14;96955.63;4957401;29;20051;-78
2023/03/16 08:46:53;;;;;;;6.65;5.55;;;;;;;19.85;31.33;96954.16;4957170;29;20445;-77
2023/03/16 08:49:22;;;;;;;7.10;5.47;;;;;;;20.27;30.89;96964.56;4956546;28;20051;-78
2023/03/16 08:51:50;;;;;;;5.10;4.70;;;;;;;20.44;29.68;96952.19;4957073;29;20051;-78
2023/03/16 08:54:18;;;;;;;4.97;4.28;;;;;;;20.65;28.82;96957.91;4957282;29;20082;-75
2023/03/16 08:56:45;;;;;;;4.95;4.45;;;;;;;20.80;28.55;96958.19;4957233;29;20142;-75
2023/03/16 08:59:13;;;;;;;5.53;4.95;;;;;;;20.94;28.39;96954.16;4956341;28;20067;-76
2023/03/16 09:01:55;;;;;;;5.15;4.65;;;;;;;21.11;28.09;96959.50;4957384;29;20142;-76
2023/03/16 09:04:24;;;;;;;7.80;5.05;;;;;;;21.34;27.53;96958.56;4957178;29;20057;-76
2023/03/16 09:06:52;;;;;;;7.30;4.80;;;;;;;21.46;27.59;96955.03;4957159;29;20058;-76
2023/03/16 09:09:35;;;;;;;6.40;4.80;;;;;;;21.57;27.46;96949.63;4956213;28;20139;-76
2023/03/16 09:12:04;;;;;;;5.35;4.53;;;;;;;21.46;27.42;96955.84;4957018;29;20537;-76
2023/03/16 09:14:32;;;;;;;6.70;4.35;;;;;;;21.35;28.59;96952.19;4957122;29;20055;-76
2023/03/16 09:17:00;;;;;;;6.55;4.57;;;;;;;21.21;27.80;96942.97;4956912;29;20054;-76
2023/03/16 09:19:30;;;;;;;8.10;4.32;;;;;;;20.99;29.61;96942.88;4956018;28;20047;-76
2023/03/16 09:22:17;;;;;;;4.75;4.30;;;;;;;20.19;29.10;96936.59;4956716;29;20067;-76
2023/03/16 09:24:44;;;;;;;4.95;4.30;;;;;;;19.09;32.04;96943.44;4956890;29;20047;-76
2023/03/16 09:27:12;;;;;;;4.10;3.70;;;;;;;17.98;32.74;96938.34;4956173;28;20074;-76
2023/03/16 09:29:41;;;;;;;4.20;3.80;;;;;;;17.02;33.79;96931.72;4955698;28;20051;-76
2023/03/16 09:32:09;;;;;;;5.32;4.25;;;;;;;16.36;35.41;96936.34;4956480;29;20057;-76
2023/03/16 09:34:38;;;;;;;5.03;4.10;;;;;;;15.89;35.00;96940.97;4956470;29;20058;-76
2023/03/16 09:37:06;;;;;;;4.38;3.97;;;;;;;15.58;38.14;96947.69;4956603;29;20059;-77
2023/03/16 09:39:34;;;;;;;4.85;3.85;;;;;;;15.56;36.57;96936.56;4955815;28;20055;-77
2023/03/16 09:42:13;;;;;;;4.18;3.80;;;;;;;15.69;38.45;96933.09;4956515;29;20429;-76
2023/03/16 09:44:49;;;;;;;5.40;3.67;;;;;;;15.85;36.60;96930.06;4956440;29;20110;-76
2023/03/16 09:47:28;;;;;;;4.10;3.20;;;;;;;15.88;36.40;96934.09;4956471;29;20097;-76
2023/03/16 09:50:02;;;;;;;4.30;3.75;;;;;;;15.80;35.01;96927.22;4955473;28;20048;-77
2023/03/16 09:52:38;;;;;;;5.70;3.78;;;;;;;15.62;36.33;96924.41;4956408;29;20047;-76
2023/03/16 09:55:12;;;;;;;5.55;3.90;;;;;;;15.54;36.08;96920.16;4956345;29;20488;-77
2023/03/16 09:57:43;;;;;;;9.77;5.63;;;;;;;15.54;36.22;96914.13;4956137;29;20502;-77
2023/03/16 10:00:17;;;;;;;3.92;3.53;;;;;;;15.59;36.56;96916.94;4956118;28;20051;-77
2023/03/16 10:03:02;;;;;;;4.95;4.47;;;;;;;15.51;34.86;96907.44;4956706;29;20470;-77
2023/03/16 10:05:33;;;;;;;5.28;4.50;;;;;;;15.51;35.92;96912.72;4962111;29;20059;-78
2023/03/16 10:08:09;;;;;;;5.38;3.67;;;;;;;15.58;36.22;96907.44;4960226;29;20644;-78
2023/03/16 10:10:48;;;;;;;6.95;4.38;;;;;;;15.63;35.18;96900.56;4961010;28;20053;-78
2023/03/16 10:13:25;;;;;;;6.05;3.97;;;;;;;15.75;35.76;96892.06;4960803;29;20433;-78
2023/03/16 10:15:55;;;;;;;5.65;5.03;;;;;;;15.66;35.17;96894.88;4956111;29;20059;-77
2023/03/16 10:18:26;;;;;;;4.10;3.70;;;;;;;15.60;35.47;96890.44;4955201;28;20513;-77
2023/03/16 10:20:55;;;;;;;6.22;4.10;;;;;;;15.80;35.11;96895.66;4956428;29;20047;-77
2023/03/16 10:23:25;;;;;;;3.85;3.40;;;;;;;15.93;36.73;96884.28;4956759;29;20490;-78
2023/03/16 10:25:54;;;;;;;4.40;4.00;;;;;;;16.21;34.98;96873.44;4956894;29;20055;-78
2023/03/16 10:28:25;;;;;;;5.32;4.18;;;;;;;16.04;33.65;96870.47;4955854;28;20047;-78
2023/03/16 10:30:54;;;;;;;4.43;4.03;;;;;;;15.70;33.54;96860.25;4956369;29;20490;-77
2023/03/16 10:33:24;;;;;;;3.95;3.55;;;;;;;15.13;34.38;96859.97;4955543;29;20078;-77
2023/03/16 10:36:00;;;;;;;4.68;3.83;;;;;;;14.88;34.96;96862.44;4955689;29;20485;-78
2023/03/16 10:38:31;;;;;;;4.70;3.50;;;;;;;14.98;34.98;96858.41;4953677;28;20061;-77
2023/03/16 10:41:00;;;;;;;4.20;3.80;;;;;;;15.27;34.78;96861.59;4955390;29;20494;-78
2023/03/16 10:43:29;;;;;;;3.83;3.38;;;;;;;15.59;35.77;96857.28;4955929;29;20118;-78
2023/03/16 10:46:01;;;;;;;4.65;3.30;;;;;;;16.05;33.50;96874.75;4955727;29;20141;-78
2023/03/16 10:48:32;;;;;;;3.47;2.97;;;;;;;16.30;32.66;96873.19;4955494;28;20461;-77
2023/03/16 10:51:06;;;;;;;3.83;2.97;;;;;;;16.65;31.70;96870.94;4956001;29;20052;-78
2023/03/16 10:53:37;;;;;;;2.97;2.67;;;;;;;16.89;31.70;96864.09;4956054;29;20055;-78
2023/03/16 10:56:12;;;;;;;9.43;3.40;;;;;;;17.05;33.28;96860.13;4956137;29;20149;-78
2023/03/16 10:58:42;;;;;;;4.00;2.78;;;;;;;17.21;34.85;96864.84;4955219;28;20063;-78
2023/03/16 11:01:10;;;;;;;4.43;3.28;;;;;;;17.29;32.19;96847.94;4957688;29;20047;-78
2023/03/16 11:03:40;;;;;;;3.95;3.53;;;;;;;17.27;31.84;96852.63;4957433;29;20075;-78
2023/03/16 11:06:21;;;;;;;5.07;3.45;;;;;;;17.16;31.52;96842.78;4956763;29;20506;-78
2023/03/16 11:08:49;;;;;;;4.93;3.80;;;;;;;17.13;34.23;96845.88;4954949;28;20624;-78
2023/03/16 11:11:26;;;;;;;4.32;3.45;;;;;;;17.07;32.26;96845.69;4956283;29;20138;-79
2023/03/16 11:13:58;;;;;;;7.32;4.50;;;;;;;16.76;31.75;96862.34;4956575;29;20053;-78
2023/03/16 11:16:31;;;;;;;6.20;4.17;;;;;;;16.51;31.77;96859.72;4955853;29;20494;-78
2023/03/16 11:19:05;;;;;;;5.50;4.03;;;;;;;16.04;31.43;96854.69;4954749;28;20059;-78
2023/03/16 11:21:41;;;;;;;3.45;3.15;;;;;;;15.51;31.91;96848.81;4955535;29;20054;-78
2023/03/16 11:24:16;;;;;;;5.97;4.43;;;;;;;15.23;34.49;96840.16;4955081;29;20054;-77
2023/03/16 11:26:46;;;;;;;4.38;3.20;;;;;;;15.05;33.80;96834.75;4954938;29;20142;-77
2023/03/16 11:29:20;;;;;;;4.45;3.58;;;;;;;14.77;33.90;96830.50;4953730;28;20051;-78
2023/03/16 11:31:53;;;;;;;5.63;4.82;;;;;;;14.43;34.63;96834.13;4954726;29;20310;-78
2023/03/16 11:34:27;;;;;;;8.30;5.05;;;;;;;14.21;34.52;96833.44;4954873;29;20047;-78
2023/03/16 11:36:59;;;;;;;6.32;4.50;;;;;;;13.94;35.43;96848.31;4954436;29;20055;-77
2023/03/16 11:39:32;;;;;;;5.15;4.30;;;;;;;13.72;35.56;96842.38;4953745;28;20061;-77
2023/03/16 11:42:27;;;;;;;6.63;4.53;;;;;;;13.68;35.79;96851.63;4954214;29;20047;-77